Time;durP1;ratioP1;P1;durP2;ratioP2;P2;SDS_P1;SDS_P2;PMS_P1;PMS_P2;Temp;Humidity;BMP_temperature;BMP_pressure;BME280_temperature;BME280_humidity;BME280_pressure;Samples;Min_cycle;Max_cycle;Signal;HPM_P1;HPM_P2
2022/03/28 00:01:24;;;;;;;9.20;3.83;;;;;;;13.66;30.99;100805.30;1983978;96;25733;-80
2022/03/28 00:04:59;;;;;;;6.33;3.90;;;;;;;13.65;31.03;100800.92;1995435;94;25822;-74
2022/03/28 00:08:29;;;;;;;7.95;3.92;;;;;;;13.63;31.03;100796.08;2032564;96;25880;-75
2022/03/28 00:12:19;;;;;;;6.03;3.80;;;;;;;13.62;31.06;100793.89;2000348;97;25863;-81
2022/03/28 00:15:47;;;;;;;5.78;4.05;;;;;;;13.62;31.03;100792.58;2072684;93;25619;-76
2022/03/28 00:19:27;;;;;;;4.72;3.65;;;;;;;13.63;31.05;100788.22;2087176;93;25805;-76
2022/03/28 00:22:59;;;;;;;7.83;4.00;;;;;;;13.62;31.06;100777.29;2092450;93;25741;-74
2022/03/28 00:26:50;;;;;;;6.92;3.27;;;;;;;13.60;31.08;100773.34;2092546;93;25685;-74
2022/03/28 00:30:31;;;;;;;5.90;3.60;;;;;;;13.57;31.14;100769.80;1888385;104;25866;-74
2022/03/28 00:34:08;;;;;;;4.70;3.15;;;;;;;13.55;31.12;100755.34;1871621;104;25723;-82
2022/03/28 00:37:41;;;;;;;8.70;4.78;;;;;;;13.54;31.05;100752.71;1865050;105;25783;-74
2022/03/28 00:41:38;;;;;;;5.97;3.77;;;;;;;13.53;31.07;100749.61;1875963;102;25930;-81
2022/03/28 00:45:25;;;;;;;;;;;;;;;;;;;;;
2022/03/28 00:48:48;;;;;;;7.70;4.90;;;;;;;13.52;31.06;100734.33;1839569;105;25904;-75
2022/03/28 00:52:33;;;;;;;5.87;3.70;;;;;;;13.51;31.07;100733.89;1852569;106;25825;-79
2022/03/28 00:56:35;;;;;;;10.00;3.45;;;;;;;13.52;31.10;100729.52;1865087;105;25514;-75
2022/03/28 01:00:23;;;;;;;5.35;3.27;;;;;;;13.53;31.09;100722.11;1872847;101;25763;-78
2022/03/28 01:04:08;;;;;;;;;;;;;;;;;;;;;
2022/03/28 01:07:57;;;;;;;7.78;4.08;;;;;;;13.48;31.14;100699.78;1859314;104;25881;-75
2022/03/28 01:11:22;;;;;;;9.48;4.37;;;;;;;13.49;31.07;100702.84;1846837;103;25814;-81
2022/03/28 01:14:54;;;;;;;6.40;3.65;;;;;;;13.49;31.12;100685.81;1847409;103;26166;-75
2022/03/28 01:18:51;;;;;;;;;;;;;;;;;;;;;
2022/03/28 01:22:18;;;;;;;6.28;4.20;;;;;;;13.49;31.02;100676.65;1835209;105;25337;-75
2022/03/28 01:25:51;;;;;;;4.12;3.20;;;;;;;13.51;31.02;100666.22;1841378;105;26030;-76
2022/03/28 01:29:47;;;;;;;7.90;3.58;;;;;;;13.51;31.06;100663.16;1828390;108;25869;-81
2022/03/28 01:33:30;;;;;;;4.62;3.08;;;;;;;13.51;31.10;100655.73;1832202;104;25841;-75
2022/03/28 01:37:09;;;;;;;4.03;3.55;;;;;;;13.52;31.08;100655.75;1841509;107;25775;-76
2022/03/28 01:40:59;;;;;;;7.17;3.12;;;;;;;13.51;31.06;100636.97;1843676;107;25921;-75
2022/03/28 01:44:31;;;;;;;3.70;3.10;;;;;;;13.53;31.05;100638.29;1846722;105;25808;-76
2022/03/28 01:48:29;;;;;;;4.65;2.87;;;;;;;13.55;31.03;100639.20;1770864;109;26046;-74
2022/03/28 01:51:55;;;;;;;5.50;3.60;;;;;;;13.54;31.05;100626.55;1786408;109;25541;-75
2022/03/28 01:55:23;;;;;;;3.55;2.70;;;;;;;13.53;31.09;100618.64;1783510;108;25864;-75
2022/03/28 01:58:44;;;;;;;5.60;2.72;;;;;;;13.53;31.09;100614.28;1794797;108;25768;-79
2022/03/28 02:02:18;;;;;;;5.83;3.50;;;;;;;13.53;31.09;100611.66;1860497;105;25839;-82
2022/03/28 02:06:00;;;;;;;3.92;3.00;;;;;;;13.53;31.14;100606.86;1849486;105;25766;-74
2022/03/28 02:09:36;;;;;;;6.92;3.30;;;;;;;13.52;31.15;100609.03;1993732;97;26217;-75
2022/03/28 02:13:15;;;;;;;3.62;2.77;;;;;;;13.51;31.13;100603.36;2002006;96;25727;-76
2022/03/28 02:16:45;;;;;;;4.78;2.70;;;;;;;13.50;31.16;100605.09;2049456;94;25451;-81
2022/03/28 02:20:22;;;;;;;5.75;2.77;;;;;;;13.51;31.17;100601.61;2049113;95;25288;-81
2022/03/28 02:23:46;;;;;;;4.58;2.65;;;;;;;13.51;31.22;100599.42;2036447;95;25639;-77
2022/03/28 02:27:07;;;;;;;5.95;2.95;;;;;;;13.50;31.23;100595.93;2042910;94;26181;-80
2022/03/28 02:30:28;;;;;;;3.15;2.58;;;;;;;13.48;31.29;100602.00;2116560;89;31498;-80
2022/03/28 02:33:49;;;;;;;5.25;3.17;;;;;;;13.47;31.30;100588.02;2202492;89;30877;-76
2022/03/28 02:40:36;;;;;;;4.28;2.98;;;;;;;13.43;31.39;100592.73;2156284;91;25742;-76
2022/03/28 02:43:57;;;;;;;3.58;2.80;;;;;;;13.42;31.45;100590.55;2155985;91;25679;-77
2022/03/28 02:47:29;;;;;;;3.97;2.77;;;;;;;13.41;31.45;100590.11;2156285;91;25822;-75
2022/03/28 02:50:48;;;;;;;5.00;3.42;;;;;;;13.42;31.49;100584.00;2153587;90;25785;-80
2022/03/28 02:54:12;;;;;;;4.42;3.15;;;;;;;13.41;31.51;100584.88;2156108;91;25805;-79
2022/03/28 02:57:36;;;;;;;8.25;3.25;;;;;;;13.40;31.55;100586.17;2156040;91;25840;-80
2022/03/28 03:01:03;;;;;;;4.78;3.35;;;;;;;13.38;31.60;100572.16;2186225;89;25640;-75
2022/03/28 03:04:26;;;;;;;4.70;2.30;;;;;;;13.37;31.68;100573.03;2209846;89;25778;-76
2022/03/28 03:07:49;;;;;;;6.97;3.33;;;;;;;13.34;31.72;100566.00;2210060;89;31519;-74
2022/03/28 03:11:36;;;;;;;3.95;2.75;;;;;;;13.31;31.80;100563.33;2207160;89;25917;-75
2022/03/28 03:14:56;;;;;;;4.67;2.87;;;;;;;13.30;31.83;100569.87;2171704;89;25709;-79
2022/03/28 03:18:17;;;;;;;6.85;2.92;;;;;;;13.29;31.89;100564.16;2210100;89;30881;-74
2022/03/28 03:21:40;;;;;;;7.53;3.57;;;;;;;13.28;31.95;100559.79;2210193;89;25645;-74
2022/03/28 03:25:08;;;;;;;4.00;3.05;;;;;;;13.28;32.02;100559.79;2209800;88;25782;-77
2022/03/28 03:28:29;;;;;;;3.62;2.87;;;;;;;13.24;32.07;100561.48;2209513;89;25729;-75
2022/03/28 03:31:50;;;;;;;5.20;3.00;;;;;;;13.21;32.09;100550.48;2210150;89;25760;-77
2022/03/28 03:35:14;;;;;;;4.35;2.58;;;;;;;13.20;32.14;100549.17;2209898;88;25671;-79
2022/03/28 03:38:35;;;;;;;3.85;2.90;;;;;;;13.19;32.19;100544.34;2249307;88;25699;-75
2022/03/28 03:42:16;;;;;;;5.15;2.90;;;;;;;13.16;32.28;100539.08;2245128;86;31358;-74
2022/03/28 03:45:38;;;;;;;6.10;2.52;;;;;;;13.15;32.32;100534.68;2245453;86;25629;-80
2022/03/28 03:53:20;;;;;;;4.83;2.90;;;;;;;13.13;32.41;100529.00;2158238;90;25534;-78
2022/03/28 03:57:02;;;;;;;4.28;3.10;;;;;;;13.11;32.43;100522.84;2165336;90;25747;-75
2022/03/28 04:05:10;;;;;;;6.55;3.72;;;;;;;13.07;32.53;100516.68;2074712;92;25487;-77
2022/03/28 04:08:31;;;;;;;3.72;2.98;;;;;;;13.05;32.59;100509.22;2089433;93;25402;-75
2022/03/28 04:12:02;;;;;;;4.70;3.05;;;;;;;13.02;32.71;100504.37;2088459;93;25712;-74
2022/03/28 04:15:43;;;;;;;4.20;3.72;;;;;;;13.01;32.76;100510.03;2089626;93;25829;-79
2022/03/28 04:19:15;;;;;;;4.28;3.20;;;;;;;12.99;32.82;100505.20;2032615;95;25703;-74
2022/03/28 04:22:51;;;;;;;5.78;3.25;;;;;;;12.96;32.86;100499.50;2089373;93;25951;-79
2022/03/28 04:26:24;;;;;;;4.25;3.60;;;;;;;12.95;32.88;100496.84;2094191;93;25810;-78
2022/03/28 04:29:45;;;;;;;4.50;3.70;;;;;;;12.92;32.95;100494.18;2090450;93;25806;-79
2022/03/28 04:33:09;;;;;;;6.35;3.83;;;;;;;12.92;33.00;100492.88;2090608;92;30748;-76
2022/03/28 04:40:21;;;;;;;4.87;2.90;;;;;;;12.90;33.06;100474.98;2055542;94;26987;-76
2022/03/28 04:43:46;;;;;;;7.67;3.92;;;;;;;12.94;33.08;100488.55;1975623;98;25801;-75
2022/03/28 04:52:07;;;;;;;6.08;3.62;;;;;;;12.96;33.14;100491.66;1930895;102;26060;-74
2022/03/28 04:55:34;;;;;;;5.00;3.30;;;;;;;12.96;33.25;100462.88;1888096;103;25553;-76
2022/03/28 04:59:21;;;;;;;4.20;3.00;;;;;;;12.96;33.29;100461.56;1885883;103;25530;-75
2022/03/28 05:02:47;;;;;;;5.37;3.72;;;;;;;12.98;33.31;100451.10;1892122;102;26566;-79
2022/03/28 05:06:20;;;;;;;8.45;3.98;;;;;;;13.00;33.38;100458.13;1889853;103;26170;-73
2022/03/28 05:18:40;;;;;;;4.80;3.70;;;;;;;13.08;33.51;100458.23;1871716;103;25593;-74
2022/03/28 05:22:19;;;;;;;;;;;;;;;;;;;;;
2022/03/28 05:25:54;;;;;;;9.63;4.28;;;;;;;13.20;33.68;100454.92;1826594;105;25403;-78
2022/03/28 05:29:24;;;;;;;5.28;3.47;;;;;;;13.25;33.74;100451.95;1849838;105;25406;-80
2022/03/28 05:33:01;;;;;;;5.85;3.47;;;;;;;13.31;33.75;100445.94;1833710;106;25813;-75
2022/03/28 05:36:41;;;;;;;;;;;;;;;;;;;;;
2022/03/28 05:40:32;;;;;;;5.35;4.28;;;;;;;13.44;33.80;100451.79;1808022;105;25864;-76
2022/03/28 05:44:35;;;;;;;5.87;4.40;;;;;;;13.51;33.92;100453.63;1863680;103;25858;-77
2022/03/28 05:48:41;;;;;;;6.62;3.75;;;;;;;13.58;33.87;100457.20;1861518;106;25854;-74
2022/03/28 05:52:22;;;;;;;6.08;4.12;;;;;;;13.64;33.90;100456.84;1786173;107;25811;-76
2022/03/28 05:56:04;;;;;;;10.15;4.80;;;;;;;13.72;34.00;100461.30;1777677;108;25916;-74
2022/03/28 05:59:59;;;;;;;6.80;4.08;;;;;;;13.78;34.01;100462.25;1770185;110;25945;-79
2022/03/28 06:03:27;;;;;;;5.97;4.85;;;;;;;13.84;34.00;100454.47;1771558;107;25971;-76
2022/03/28 06:06:57;;;;;;;5.08;4.10;;;;;;;13.92;34.14;100452.80;1767994;108;27631;-75
2022/03/28 06:10:33;;;;;;;;;;;;;;;13.99;34.14;100448.94;1749862;111;25862;-76
2022/03/28 06:14:01;;;;;;;5.28;3.72;;;;;;;14.05;34.08;100459.06;1748868;111;25930;-79
2022/03/28 06:18:34;;;;;;;6.17;4.80;;;;;;;14.11;34.09;100453.89;1757437;108;25838;-75
2022/03/28 06:21:31;;;;;;;6.83;4.75;;;;;;;14.20;34.07;100445.66;1762429;110;25993;-76
2022/03/28 06:25:15;;;;;;;8.55;4.33;;;;;;;14.29;34.08;100445.75;1791554;109;25975;-74
2022/03/28 06:28:49;;;;;;;5.55;4.28;;;;;;;14.37;34.02;100437.07;1831834;104;26076;-77
2022/03/28 06:32:25;;;;;;;9.58;4.62;;;;;;;14.46;34.07;100438.91;1884586;103;25989;-79
2022/03/28 06:40:09;;;;;;;7.12;4.90;;;;;;;14.66;34.10;100425.12;1820886;107;25971;-75
2022/03/28 06:44:11;;;;;;;;;;;;;;;;;;;;;
2022/03/28 06:47:29;;;;;;;8.48;4.47;;;;;;;14.88;36.04;100423.07;1811086;104;26652;-84
2022/03/28 06:50:58;;;;;;;21.20;5.35;;;;;;;15.69;37.77;100426.58;1810921;106;26083;-80
2022/03/28 06:54:22;;;;;;;10.05;5.12;;;;;;;16.00;37.89;100413.11;1806697;104;26037;-77
2022/03/28 06:57:43;;;;;;;9.55;5.50;;;;;;;16.10;37.93;100417.50;1821883;106;25853;-77
2022/03/28 07:01:03;;;;;;;9.50;4.78;;;;;;;16.15;37.76;100403.91;1825482;108;31121;-77
2022/03/28 07:04:27;;;;;;;8.53;5.03;;;;;;;16.21;37.75;100407.00;1826985;104;25907;-77
2022/03/28 07:07:50;;;;;;;9.35;5.12;;;;;;;16.28;37.58;100399.55;1826787;107;31706;-78
2022/03/28 07:11:10;;;;;;;8.78;5.40;;;;;;;16.33;37.35;100389.88;1829882;106;25456;-75
2022/03/28 07:14:37;;;;;;;6.40;4.60;;;;;;;16.41;37.18;100378.06;1881332;102;31423;-75
2022/03/28 07:18:13;;;;;;;7.78;5.37;;;;;;;16.50;36.89;100388.56;1957267;98;26050;-76
2022/03/28 07:21:35;;;;;;;7.35;4.95;;;;;;;17.23;36.80;100383.63;1992427;99;26068;-76
2022/03/28 07:24:55;;;;;;;6.53;5.30;;;;;;;20.43;34.25;100378.27;1997411;97;25906;-77
2022/03/28 07:28:17;;;;;;;6.33;4.60;;;;;;;23.13;31.35;100385.16;2027429;96;31438;-76
2022/03/28 07:31:39;;;;;;;4.37;3.98;;;;;;;25.27;28.80;100384.51;2064289;95;26612;-77
2022/03/28 07:35:02;;;;;;;7.10;5.10;;;;;;;26.89;26.76;100387.34;2083687;93;25785;-75
2022/03/28 07:38:23;;;;;;;7.45;4.58;;;;;;;28.36;25.07;100395.72;2220156;85;25734;-76
2022/03/28 07:41:51;;;;;;;7.42;5.00;;;;;;;29.69;23.74;100402.67;2250993;87;25294;-76
2022/03/28 07:45:10;;;;;;;5.17;4.30;;;;;;;30.70;22.67;100396.37;2280679;86;25692;-77
2022/03/28 07:48:31;;;;;;;9.03;4.42;;;;;;;31.70;21.76;100388.42;2291522;86;25680;-77
2022/03/28 07:52:08;;;;;;;;;;;;;;;;;;;;;
2022/03/28 07:55:35;;;;;;;6.65;4.28;;;;;;;33.35;20.52;100385.84;2280651;84;25813;-77
2022/03/28 07:58:59;;;;;;;5.97;3.98;;;;;;;34.49;19.92;100384.24;2273388;85;25889;-77
2022/03/28 08:02:20;;;;;;;6.05;3.83;;;;;;;35.65;19.34;100379.70;2299403;86;25270;-78
2022/03/28 08:05:41;;;;;;;4.03;3.37;;;;;;;36.61;18.68;100376.23;2299145;85;25643;-79
2022/03/28 08:09:04;;;;;;;4.92;3.40;;;;;;;37.52;18.14;100371.41;2299206;86;25747;-79
2022/03/28 08:12:25;;;;;;;11.70;5.30;;;;;;;38.35;17.69;100377.47;2276812;86;25690;-73
2022/03/28 08:15:46;;;;;;;7.80;5.53;;;;;;;38.80;16.08;100375.52;2299164;86;25222;-79
2022/03/28 08:19:10;;;;;;;34.27;6.60;;;;;;;38.10;15.10;100360.33;2297651;86;25821;-80
2022/03/28 08:22:46;;;;;;;12.65;5.92;;;;;;;37.89;14.82;100367.22;2296784;86;25735;-79
2022/03/28 08:26:11;;;;;;;12.88;6.03;;;;;;;37.83;14.43;100355.03;2104535;92;25866;-74
2022/03/28 08:29:46;;;;;;;10.93;6.25;;;;;;;37.08;14.12;100350.38;2105192;94;25997;-74
2022/03/28 08:33:06;;;;;;;11.12;5.35;;;;;;;36.79;14.29;100333.02;2104145;93;25299;-74
2022/03/28 08:36:30;;;;;;;8.90;5.53;;;;;;;36.85;14.38;100341.49;2112324;93;26099;-75
2022/03/28 08:39:54;;;;;;;10.95;5.70;;;;;;;36.28;14.04;100332.42;2111764;93;25740;-75
2022/03/28 08:43:23;;;;;;;13.65;5.33;;;;;;;35.70;14.16;100328.14;2112668;91;25731;-75
2022/03/28 08:46:45;;;;;;;28.85;5.60;;;;;;;35.40;14.71;100326.56;2105697;93;25763;-74
2022/03/28 08:50:23;;;;;;;16.77;6.12;;;;;;;35.94;14.59;100318.95;2131139;92;25920;-74
2022/03/28 08:53:53;;;;;;;23.12;5.83;;;;;;;36.14;14.39;100306.45;2150998;88;25791;-75
2022/03/28 08:57:16;;;;;;;13.53;5.33;;;;;;;36.51;14.41;100316.41;2117915;93;26376;-76
2022/03/28 09:00:38;;;;;;;24.95;5.62;;;;;;;36.67;14.24;100317.81;2118153;93;25813;-79
2022/03/28 09:04:26;;;;;;;12.37;5.37;;;;;;;36.95;14.06;100308.09;2114681;92;25852;-80
2022/03/28 09:07:55;;;;;;;18.23;4.92;;;;;;;37.07;13.92;100303.82;1989639;99;25722;-79
2022/03/28 09:11:27;;;;;;;22.17;5.15;;;;;;;37.47;13.99;100308.43;2037607;92;25873;-78
2022/03/28 09:15:03;;;;;;;12.85;5.22;;;;;;;37.47;13.51;100302.14;2045661;96;25997;-76
2022/03/28 09:18:46;;;;;;;10.55;5.00;;;;;;;37.36;13.25;100292.17;2014158;95;25614;-78
2022/03/28 09:26:04;;;;;;;8.20;4.78;;;;;;;37.26;13.55;100280.41;1956105;97;25853;-80
2022/03/28 09:29:27;;;;;;;15.13;5.30;;;;;;;37.48;13.23;100277.51;1956835;97;25783;-78
2022/03/28 09:32:57;;;;;;;12.10;5.08;;;;;;;37.39;13.27;100261.98;1942541;99;25789;-78
2022/03/28 09:36:17;;;;;;;9.48;3.87;;;;;;;37.32;12.54;100268.48;2016623;96;25710;-74
2022/03/28 09:39:41;;;;;;;14.53;4.40;;;;;;;37.24;12.73;100268.84;2048835;96;25894;-73
2022/03/28 09:43:07;;;;;;;12.53;3.90;;;;;;;37.03;12.77;100252.61;2043795;96;25797;-80
2022/03/28 09:46:37;;;;;;;22.82;3.77;;;;;;;37.51;12.63;100248.67;2019425;98;25928;-74
2022/03/28 09:50:04;;;;;;;15.30;4.62;;;;;;;37.86;12.47;100247.26;2017888;96;25580;-74
2022/03/28 09:53:57;;;;;;;;;;;;;;;;;;;;;
2022/03/28 09:57:32;;;;;;;;;;;;;;;;;;;;;
2022/03/28 10:00:59;;;;;;;20.40;4.55;;;;;;;36.79;12.22;100228.42;1860008;105;25422;-80
2022/03/28 10:04:31;;;;;;;11.30;3.52;;;;;;;36.93;12.24;100221.28;1890701;99;25860;-79
2022/03/28 10:07:56;;;;;;;18.40;4.40;;;;;;;36.80;12.23;100216.58;1902130;101;25801;-79
2022/03/28 10:11:19;;;;;;;;;;;;;;;36.96;11.93;100216.05;1889863;104;25823;-74
2022/03/28 10:14:42;;;;;;;16.00;4.45;;;;;;;36.88;11.86;100209.45;1876993;105;26250;-76
2022/03/28 10:18:19;;;;;;;8.18;3.40;;;;;;;36.84;12.28;100201.22;1860902;103;26565;-78
2022/03/28 10:21:45;;;;;;;26.17;4.60;;;;;;;36.72;12.37;100198.73;1876598;105;25875;-75
2022/03/28 10:25:21;;;;;;;10.68;4.05;;;;;;;36.63;12.58;100190.42;1896126;103;25747;-77
2022/03/28 10:29:01;;;;;;;10.55;4.33;;;;;;;36.70;12.55;100199.38;1931851;100;25978;-79
2022/03/28 10:32:39;;;;;;;10.80;4.22;;;;;;;36.59;12.61;100189.48;1968595;99;25760;-79
2022/03/28 10:36:29;;;;;;;;;;;;;;;;;;;;;
2022/03/28 10:39:36;;;;;;;11.50;3.92;;;;;;;36.55;12.66;100173.95;2050378;92;25790;-75
2022/03/28 10:43:13;;;;;;;9.38;3.77;;;;;;;36.36;12.74;100162.97;2141629;91;25747;-74
2022/03/28 10:46:37;;;;;;;17.67;4.45;;;;;;;36.11;12.86;100152.02;2142997;90;25780;-74
2022/03/28 10:49:58;;;;;;;17.02;4.95;;;;;;;35.29;12.63;100139.06;2144365;90;26550;-72
2022/03/28 10:53:37;;;;;;;18.62;5.03;;;;;;;34.30;13.14;100142.59;2143257;90;25781;-74
2022/03/28 10:57:04;;;;;;;8.20;4.28;;;;;;;33.89;13.39;100123.69;2142933;92;25722;-74
2022/03/28 11:00:26;;;;;;;13.65;3.67;;;;;;;33.69;14.44;100113.06;2208278;86;25671;-72
2022/03/28 11:04:23;;;;;;;15.28;3.58;;;;;;;34.03;14.41;100116.73;2282318;85;25660;-73
2022/03/28 11:07:45;;;;;;;25.10;3.50;;;;;;;34.45;13.95;100102.60;2277508;85;25757;-74
2022/03/28 11:11:24;;;;;;;15.10;3.55;;;;;;;34.39;13.75;100095.86;2274540;87;25729;-76
2022/03/28 11:14:53;;;;;;;9.45;3.37;;;;;;;33.83;13.50;100087.16;2263399;85;25208;-78
2022/03/28 11:18:25;;;;;;;25.75;3.30;;;;;;;33.44;13.75;100088.86;2287042;85;25780;-72
2022/03/28 11:22:10;;;;;;;16.65;3.20;;;;;;;33.30;13.86;100081.81;2280124;85;25824;-75
2022/03/28 11:26:15;;;;;;;15.25;2.83;;;;;;;33.16;13.97;100063.95;2307978;81;25658;-78
2022/03/28 11:29:33;;;;;;;19.73;2.77;;;;;;;33.08;13.61;100063.68;2324057;83;25849;-75
2022/03/28 11:32:58;;;;;;;10.82;2.80;;;;;;;32.77;14.16;100063.23;2323833;85;25728;-75
2022/03/28 11:36:23;;;;;;;20.70;3.52;;;;;;;32.80;14.12;100049.98;2326797;81;26261;-76
2022/03/28 11:43:57;;;;;;;21.12;2.20;;;;;;;33.02;14.34;100043.87;2200269;87;25768;-78
2022/03/28 11:50:42;;;;;;;20.97;2.80;;;;;;;32.67;14.50;100034.71;2109097;92;25844;-78
2022/03/28 11:54:16;;;;;;;10.28;2.42;;;;;;;32.80;14.52;100010.34;2078861;92;26094;-79
2022/03/28 12:01:38;;;;;;;16.73;2.35;;;;;;;32.43;14.80;100009.05;2085434;93;25834;-78
2022/03/28 12:04:59;;;;;;;15.88;2.20;;;;;;;32.72;14.83;99998.41;2087194;94;25964;-78
2022/03/28 12:08:24;;;;;;;18.02;2.40;;;;;;;32.82;14.39;100007.54;2086827;93;25916;-79
2022/03/28 12:11:48;;;;;;;23.07;2.50;;;;;;;32.62;14.19;99984.24;2083093;94;25779;-78
2022/03/28 12:15:30;;;;;;;24.52;2.08;;;;;;;32.22;14.44;99983.10;2102546;93;25743;-77
2022/03/28 12:18:59;;;;;;;16.45;2.25;;;;;;;32.39;14.78;99967.02;2103276;93;25754;-77
2022/03/28 12:22:23;;;;;;;22.87;1.98;;;;;;;32.43;14.66;99964.99;2111813;92;25822;-77
2022/03/28 12:25:53;;;;;;;24.85;2.37;;;;;;;32.30;14.29;99958.28;2156125;91;25981;-78
2022/03/28 12:29:17;;;;;;;12.55;2.00;;;;;;;32.41;14.17;99942.64;2280209;86;26054;-78
2022/03/28 12:32:47;;;;;;;13.95;1.50;;;;;;;32.29;14.58;99951.14;2287238;84;25748;-77
2022/03/28 12:36:24;;;;;;;30.23;1.98;;;;;;;32.49;14.37;99940.75;2345978;83;25265;-77
2022/03/28 12:39:48;;;;;;;18.07;2.20;;;;;;;32.69;14.41;99933.36;2366094;83;26288;-78
2022/03/28 12:43:16;;;;;;;26.65;2.22;;;;;;;33.04;14.24;99933.41;2366824;83;25752;-77
2022/03/28 12:46:40;;;;;;;9.65;1.77;;;;;;;33.17;13.97;99923.84;2366856;83;25639;-78
2022/03/28 12:50:13;;;;;;;17.92;2.27;;;;;;;33.25;13.68;99927.32;2365520;83;25679;-77
2022/03/28 12:53:36;;;;;;;20.37;2.90;;;;;;;33.06;13.55;99907.13;2409873;80;25692;-79
2022/03/28 12:57:04;;;;;;;15.88;1.87;;;;;;;33.04;13.78;99916.32;2407560;81;25566;-78
2022/03/28 13:00:34;;;;;;;18.57;1.90;;;;;;;33.27;13.70;99907.78;2406474;82;25645;-78
2022/03/28 13:04:27;;;;;;;16.77;1.77;;;;;;;33.45;13.77;99901.44;2383669;82;25653;-78
2022/03/28 13:07:56;;;;;;;27.65;2.67;;;;;;;33.55;13.61;99888.94;2295726;84;25638;-78
2022/03/28 13:11:22;;;;;;;16.35;1.92;;;;;;;33.67;13.63;99892.48;2323236;83;25772;-77
2022/03/28 13:14:52;;;;;;;18.35;1.77;;;;;;;33.48;13.21;99881.81;2325738;83;26497;-77
2022/03/28 13:18:20;;;;;;;14.05;3.25;;;;;;;33.26;13.40;99886.66;2325762;85;25956;-79
2022/03/28 13:21:47;;;;;;;16.75;3.20;;;;;;;33.20;13.43;99884.94;2249853;84;25852;-78
2022/03/28 13:25:27;;;;;;;22.00;2.02;;;;;;;32.85;13.42;99874.53;2212103;89;25935;-78
2022/03/28 13:28:45;;;;;;;22.62;2.15;;;;;;;32.76;13.75;99861.73;2208692;87;26212;-79
2022/03/28 13:32:07;;;;;;;11.55;2.22;;;;;;;32.51;13.65;99856.52;2211957;89;25825;-78
2022/03/28 13:35:35;;;;;;;19.05;2.08;;;;;;;32.02;13.90;99847.52;2212264;89;25779;-78
2022/03/28 13:39:06;;;;;;;13.65;2.10;;;;;;;31.78;14.10;99831.78;2230843;86;25305;-76
2022/03/28 13:42:34;;;;;;;21.62;2.17;;;;;;;31.75;14.28;99826.13;2257176;84;25910;-78
2022/03/28 13:46:08;;;;;;;20.88;2.10;;;;;;;31.79;14.26;99825.41;2381162;81;25580;-79
2022/03/28 13:49:29;;;;;;;7.70;1.95;;;;;;;32.00;14.32;99815.79;2417760;81;25458;-78
2022/03/28 13:52:56;;;;;;;28.38;2.27;;;;;;;32.16;14.17;99810.97;2419161;81;25656;-78
2022/03/28 13:56:41;;;;;;;11.70;2.08;;;;;;;32.06;14.18;99805.86;2418835;80;25692;-75
2022/03/28 14:00:22;;;;;;;20.97;2.00;;;;;;;32.00;14.30;99796.06;2394488;81;25741;-77
2022/03/28 14:03:49;;;;;;;30.80;2.40;;;;;;;31.53;14.04;99788.27;2410038;81;25687;-78
2022/03/28 14:07:47;;;;;;;9.50;2.22;;;;;;;31.23;14.15;99778.70;2419675;80;25615;-77
2022/03/28 14:11:16;;;;;;;15.72;1.87;;;;;;;31.00;14.17;99763.70;2444571;80;25663;-77
2022/03/28 14:14:40;;;;;;;24.92;2.33;;;;;;;31.17;14.22;99763.84;2450335;80;25586;-79
2022/03/28 14:18:13;;;;;;;18.98;2.30;;;;;;;31.42;14.21;99743.23;2450541;80;25680;-78
2022/03/28 14:21:46;;;;;;;25.23;3.02;;;;;;;31.49;13.95;99746.73;2443943;80;25670;-77
2022/03/28 14:25:12;;;;;;;19.12;2.72;;;;;;;31.18;14.00;99748.05;2451561;80;25612;-76
2022/03/28 14:28:43;;;;;;;10.48;1.92;;;;;;;30.81;14.12;99745.32;2452117;80;26333;-77
2022/03/28 14:32:17;;;;;;;19.02;1.82;;;;;;;30.63;14.12;99740.33;2451446;79;25512;-75
2022/03/28 14:35:49;;;;;;;13.32;1.50;;;;;;;30.32;14.26;99735.24;2451559;80;25704;-76
2022/03/28 14:39:12;;;;;;;18.45;1.47;;;;;;;30.19;14.43;99724.09;2451106;79;25590;-76
2022/03/28 14:42:47;;;;;;;;;;;;;;;;;;;;;
2022/03/28 14:49:58;;;;;;;19.05;2.77;;;;;;;29.10;14.77;99709.73;2335256;84;25828;-76
2022/03/28 14:53:36;;;;;;;;;;;;;;;;;;;;;
2022/03/28 14:57:04;;;;;;;16.97;1.82;;;;;;;28.24;15.29;99690.38;2326337;82;25824;-76
2022/03/28 15:00:27;;;;;;;18.57;1.75;;;;;;;27.77;15.55;99698.08;2338535;84;25748;-75
2022/03/28 15:04:00;;;;;;;8.00;2.05;;;;;;;27.30;15.97;99690.96;2338208;82;25856;-77
2022/03/28 15:07:32;;;;;;;19.05;2.00;;;;;;;26.99;16.29;99677.52;2338445;82;25715;-73
2022/03/28 15:11:02;;;;;;;12.63;1.72;;;;;;;26.59;16.54;99682.36;2338448;84;25731;-74
2022/03/28 15:14:32;;;;;;;11.78;2.85;;;;;;;26.17;16.75;99674.31;2333977;82;25688;-79
2022/03/28 15:18:15;;;;;;;;;;;;;;;;;;;;;
2022/03/28 15:21:34;;;;;;;17.48;2.37;;;;;;;25.64;17.29;99655.17;2329008;82;25843;-76
2022/03/28 15:24:59;;;;;;;11.15;2.25;;;;;;;25.30;17.43;99646.17;2297559;84;26638;-79
2022/03/28 15:28:27;;;;;;;11.45;1.77;;;;;;;24.98;17.68;99636.56;2290566;84;25701;-75
2022/03/28 15:32:00;;;;;;;10.98;2.00;;;;;;;24.84;18.01;99628.36;2294200;84;25286;-78
2022/03/28 15:35:25;;;;;;;13.88;2.00;;;;;;;24.64;18.08;99629.77;2272271;85;25783;-75
2022/03/28 15:39:01;;;;;;;10.72;1.80;;;;;;;24.43;18.22;99624.92;2297754;86;25729;-77
2022/03/28 15:42:25;;;;;;;10.05;1.98;;;;;;;24.20;18.42;99620.63;2308566;80;25766;-79
2022/03/28 15:45:56;;;;;;;13.20;1.62;;;;;;;23.79;18.56;99604.20;2320751;85;25742;-75
2022/03/28 15:49:19;;;;;;;15.38;1.87;;;;;;;23.67;18.80;99598.50;2320701;85;25698;-79
2022/03/28 15:52:39;;;;;;;8.15;2.65;;;;;;;23.51;19.05;99590.30;2357851;82;25645;-80
2022/03/28 15:56:14;;;;;;;10.03;2.05;;;;;;;23.31;19.17;99581.81;2405911;82;25673;-77
2022/03/28 15:59:34;;;;;;;5.80;1.52;;;;;;;23.14;19.37;99586.50;2406955;81;25714;-76
2022/03/28 16:02:55;;;;;;;7.55;1.55;;;;;;;23.01;19.56;99578.61;2406496;82;25736;-79
2022/03/28 16:06:22;;;;;;;16.60;1.50;;;;;;;22.81;19.63;99574.05;2407336;82;30906;-76
2022/03/28 16:09:46;;;;;;;17.62;2.02;;;;;;;22.61;19.78;99574.39;2382682;82;25669;-78
2022/03/28 16:13:07;;;;;;;14.73;1.27;;;;;;;22.48;19.96;99577.59;2407540;82;25719;-79
2022/03/28 16:16:28;;;;;;;7.67;1.82;;;;;;;22.22;20.24;99571.92;2406162;82;25651;-80
2022/03/28 16:19:53;;;;;;;7.08;1.70;;;;;;;22.04;20.42;99564.11;2418543;81;25585;-76
2022/03/28 16:23:18;;;;;;;13.88;1.70;;;;;;;22.01;20.50;99562.45;2412206;81;25625;-75
2022/03/28 16:26:44;;;;;;;6.95;1.27;;;;;;;21.93;20.79;99549.44;2407218;82;25679;-78
2022/03/28 16:30:04;;;;;;;7.22;1.60;;;;;;;22.02;21.51;99546.93;2406866;82;25683;-79
2022/03/28 16:33:28;;;;;;;5.60;1.42;;;;;;;22.21;21.56;99554.23;2398021;81;25835;-75
2022/03/28 16:36:51;;;;;;;12.55;1.55;;;;;;;22.30;21.87;99545.46;2406727;80;25665;-79
2022/03/28 16:40:16;;;;;;;9.98;1.30;;;;;;;22.38;22.05;99555.82;2324398;84;26280;-80
2022/03/28 16:43:37;;;;;;;5.15;1.00;;;;;;;22.44;22.17;99548.92;2323726;83;25755;-78
2022/03/28 16:47:00;;;;;;;4.45;1.05;;;;;;;22.49;22.34;99545.64;2324470;85;25783;-79
2022/03/28 16:50:26;;;;;;;3.27;0.90;;;;;;;22.52;22.49;99538.88;2324326;85;25965;-75
2022/03/28 16:53:50;;;;;;;5.40;0.88;;;;;;;22.55;23.03;99538.77;2324526;83;25737;-81
2022/03/28 16:57:25;;;;;;;4.85;1.30;;;;;;;22.58;23.33;99541.30;2264831;84;26368;-77
2022/03/28 17:00:46;;;;;;;;;;;;;;;22.59;23.27;99542.16;2204550;89;26022;-80
2022/03/28 17:04:06;;;;;;;5.90;1.07;;;;;;;22.61;23.71;99538.53;2190350;88;25850;-77
2022/03/28 17:07:27;;;;;;;4.10;0.90;;;;;;;22.60;23.85;99538.58;2223591;88;25759;-77
2022/03/28 17:10:57;;;;;;;6.47;1.30;;;;;;;22.59;24.03;99538.18;2225313;86;25651;-76
2022/03/28 17:14:29;;;;;;;5.28;0.98;;;;;;;22.58;24.24;99529.82;2224895;87;25776;-74
2022/03/28 17:17:57;;;;;;;3.25;1.10;;;;;;;22.53;24.36;99529.98;2223661;89;25751;-77
2022/03/28 17:21:27;;;;;;;4.90;0.98;;;;;;;22.51;24.54;99516.34;2221357;87;34646;-77
2022/03/28 17:25:11;;;;;;;8.48;1.30;;;;;;;22.47;24.64;99524.90;2225146;87;25707;-76
2022/03/28 17:28:32;;;;;;;4.92;1.00;;;;;;;22.42;24.88;99524.70;2224609;89;25661;-76
2022/03/28 17:31:58;;;;;;;9.38;1.35;;;;;;;22.38;25.09;99525.28;2223365;87;25727;-75